sensor_id;sensor_type;location;lat;lon;timestamp;temperature;humidity
39983;DHT22;25670;44.782;10.356;2023-06-26T00:00:43;21.20;99.90
39983;DHT22;25670;44.782;10.356;2023-06-26T00:03:10;21.00;99.90
39983;DHT22;25670;44.782;10.356;2023-06-26T00:05:41;21.30;99.90
39983;DHT22;25670;44.782;10.356;2023-06-26T00:08:08;21.20;99.90
39983;DHT22;25670;44.782;10.356;2023-06-26T00:10:35;21.20;99.90
39983;DHT22;25670;44.782;10.356;2023-06-26T00:13:01;21.10;99.90
39983;DHT22;25670;44.782;10.356;2023-06-26T00:15:28;21.00;99.90
39983;DHT22;25670;44.782;10.356;2023-06-26T00:17:58;21.00;99.90
39983;DHT22;25670;44.782;10.356;2023-06-26T00:20:24;21.00;99.90
39983;DHT22;25670;44.782;10.356;2023-06-26T00:22:51;21.00;99.90
39983;DHT22;25670;44.782;10.356;2023-06-26T00:25:19;21.00;99.90
39983;DHT22;25670;44.782;10.356;2023-06-26T00:32:39;20.70;99.90
39983;DHT22;25670;44.782;10.356;2023-06-26T00:35:05;20.80;99.90
39983;DHT22;25670;44.782;10.356;2023-06-26T00:37:31;20.60;99.90
39983;DHT22;25670;44.782;10.356;2023-06-26T00:39:58;20.70;99.90
39983;DHT22;25670;44.782;10.356;2023-06-26T00:42:24;20.80;99.90
39983;DHT22;25670;44.782;10.356;2023-06-26T00:47:17;20.70;99.90
39983;DHT22;25670;44.782;10.356;2023-06-26T00:49:44;20.60;99.90
39983;DHT22;25670;44.782;10.356;2023-06-26T00:52:10;20.50;99.90
39983;DHT22;25670;44.782;10.356;2023-06-26T00:57:03;20.60;99.90
39983;DHT22;25670;44.782;10.356;2023-06-26T01:01:56;20.40;99.90
39983;DHT22;25670;44.782;10.356;2023-06-26T01:04:22;20.40;99.90
39983;DHT22;25670;44.782;10.356;2023-06-26T01:06:54;20.40;99.90
39983;DHT22;25670;44.782;10.356;2023-06-26T01:09:25;20.40;99.90
39983;DHT22;25670;44.782;10.356;2023-06-26T01:11:51;20.50;99.90
39983;DHT22;25670;44.782;10.356;2023-06-26T01:16:45;20.30;99.90
39983;DHT22;25670;44.782;10.356;2023-06-26T01:19:23;20.10;99.90
39983;DHT22;25670;44.782;10.356;2023-06-26T01:22:23;20.20;99.90
39983;DHT22;25670;44.782;10.356;2023-06-26T01:27:49;20.30;99.90
39983;DHT22;25670;44.782;10.356;2023-06-26T01:30:16;20.20;99.90
39983;DHT22;25670;44.782;10.356;2023-06-26T01:32:44;20.30;99.90
39983;DHT22;25670;44.782;10.356;2023-06-26T01:35:11;20.30;99.90
39983;DHT22;25670;44.782;10.356;2023-06-26T01:37:38;20.30;99.90
39983;DHT22;25670;44.782;10.356;2023-06-26T01:40:04;20.40;99.90
39983;DHT22;25670;44.782;10.356;2023-06-26T01:42:32;20.40;99.90
39983;DHT22;25670;44.782;10.356;2023-06-26T01:45:04;20.10;99.90
39983;DHT22;25670;44.782;10.356;2023-06-26T01:47:33;20.40;99.90
39983;DHT22;25670;44.782;10.356;2023-06-26T01:50:07;20.40;99.90
39983;DHT22;25670;44.782;10.356;2023-06-26T01:52:45;20.30;99.90
39983;DHT22;25670;44.782;10.356;2023-06-26T01:58:07;20.30;99.90
39983;DHT22;25670;44.782;10.356;2023-06-26T02:00:34;20.30;99.90
39983;DHT22;25670;44.782;10.356;2023-06-26T02:03:01;20.10;99.90
39983;DHT22;25670;44.782;10.356;2023-06-26T02:05:28;20.10;99.90
39983;DHT22;25670;44.782;10.356;2023-06-26T02:07:56;20.30;99.90
39983;DHT22;25670;44.782;10.356;2023-06-26T02:12:49;20.10;99.90
39983;DHT22;25670;44.782;10.356;2023-06-26T02:15:15;19.90;99.90
39983;DHT22;25670;44.782;10.356;2023-06-26T02:17:42;19.80;99.90
39983;DHT22;25670;44.782;10.356;2023-06-26T02:20:08;19.80;99.90
39983;DHT22;25670;44.782;10.356;2023-06-26T02:22:36;19.90;99.90
39983;DHT22;25670;44.782;10.356;2023-06-26T02:25:03;20.00;99.90
39983;DHT22;25670;44.782;10.356;2023-06-26T02:27:31;19.70;99.90
39983;DHT22;25670;44.782;10.356;2023-06-26T02:29:58;20.00;99.90
39983;DHT22;25670;44.782;10.356;2023-06-26T02:34:50;19.60;99.90
39983;DHT22;25670;44.782;10.356;2023-06-26T02:39:47;19.80;99.90
39983;DHT22;25670;44.782;10.356;2023-06-26T02:49:36;19.80;99.90
39983;DHT22;25670;44.782;10.356;2023-06-26T02:52:03;19.80;99.90
39983;DHT22;25670;44.782;10.356;2023-06-26T02:54:30;19.80;99.90
39983;DHT22;25670;44.782;10.356;2023-06-26T02:57:02;19.80;99.90
39983;DHT22;25670;44.782;10.356;2023-06-26T02:59:30;19.60;99.90
39983;DHT22;25670;44.782;10.356;2023-06-26T03:01:57;19.80;99.90
39983;DHT22;25670;44.782;10.356;2023-06-26T03:06:57;19.70;99.90
39983;DHT22;25670;44.782;10.356;2023-06-26T03:09:23;19.80;99.90
39983;DHT22;25670;44.782;10.356;2023-06-26T03:14:16;19.70;99.90
39983;DHT22;25670;44.782;10.356;2023-06-26T03:16:42;19.80;99.90
39983;DHT22;25670;44.782;10.356;2023-06-26T03:29:15;19.60;99.90
39983;DHT22;25670;44.782;10.356;2023-06-26T03:48:57;19.50;99.90
39983;DHT22;25670;44.782;10.356;2023-06-26T03:51:23;19.10;99.90
39983;DHT22;25670;44.782;10.356;2023-06-26T03:53:49;19.20;99.90
39983;DHT22;25670;44.782;10.356;2023-06-26T03:56:16;19.20;99.90
39983;DHT22;25670;44.782;10.356;2023-06-26T03:58:43;19.30;99.90
39983;DHT22;25670;44.782;10.356;2023-06-26T04:01:10;19.40;99.90
39983;DHT22;25670;44.782;10.356;2023-06-26T04:03:36;19.40;99.90
39983;DHT22;25670;44.782;10.356;2023-06-26T04:06:03;19.60;99.90
39983;DHT22;25670;44.782;10.356;2023-06-26T04:13:24;19.60;99.90
39983;DHT22;25670;44.782;10.356;2023-06-26T04:15:50;19.60;99.90
39983;DHT22;25670;44.782;10.356;2023-06-26T04:23:31;19.50;99.90
39983;DHT22;25670;44.782;10.356;2023-06-26T04:25:58;19.60;99.90
39983;DHT22;25670;44.782;10.356;2023-06-26T04:28:24;19.70;99.90
39983;DHT22;25670;44.782;10.356;2023-06-26T04:30:51;19.70;99.90
39983;DHT22;25670;44.782;10.356;2023-06-26T04:35:43;19.90;99.90
39983;DHT22;25670;44.782;10.356;2023-06-26T04:38:11;20.00;99.90
39983;DHT22;25670;44.782;10.356;2023-06-26T04:43:03;20.20;99.90
39983;DHT22;25670;44.782;10.356;2023-06-26T04:50:22;20.50;99.90
39983;DHT22;25670;44.782;10.356;2023-06-26T04:55:15;20.60;99.90
39983;DHT22;25670;44.782;10.356;2023-06-26T04:57:41;20.70;99.90
39983;DHT22;25670;44.782;10.356;2023-06-26T05:00:08;20.80;99.90
39983;DHT22;25670;44.782;10.356;2023-06-26T05:02:36;20.90;99.90
39983;DHT22;25670;44.782;10.356;2023-06-26T05:05:03;20.90;99.90
39983;DHT22;25670;44.782;10.356;2023-06-26T05:07:29;21.10;99.90
39983;DHT22;25670;44.782;10.356;2023-06-26T05:09:55;21.00;99.90
39983;DHT22;25670;44.782;10.356;2023-06-26T05:12:21;21.20;99.90
39983;DHT22;25670;44.782;10.356;2023-06-26T05:14:48;21.40;99.90
39983;DHT22;25670;44.782;10.356;2023-06-26T05:17:14;21.60;99.90
39983;DHT22;25670;44.782;10.356;2023-06-26T05:19:41;21.50;99.90
39983;DHT22;25670;44.782;10.356;2023-06-26T05:22:07;21.60;99.90
39983;DHT22;25670;44.782;10.356;2023-06-26T05:24:35;21.70;99.90
39983;DHT22;25670;44.782;10.356;2023-06-26T05:27:02;21.50;99.90
39983;DHT22;25670;44.782;10.356;2023-06-26T05:29:30;22.00;99.90
39983;DHT22;25670;44.782;10.356;2023-06-26T05:34:24;22.00;99.90
39983;DHT22;25670;44.782;10.356;2023-06-26T05:36:58;22.20;99.90
39983;DHT22;25670;44.782;10.356;2023-06-26T05:46:46;22.70;99.90
39983;DHT22;25670;44.782;10.356;2023-06-26T05:49:12;22.90;99.90
39983;DHT22;25670;44.782;10.356;2023-06-26T05:54:05;22.80;99.90
39983;DHT22;25670;44.782;10.356;2023-06-26T05:56:32;22.60;99.90
39983;DHT22;25670;44.782;10.356;2023-06-26T05:58:59;23.10;99.90
39983;DHT22;25670;44.782;10.356;2023-06-26T06:01:27;22.80;99.90
39983;DHT22;25670;44.782;10.356;2023-06-26T06:03:53;23.30;99.90
39983;DHT22;25670;44.782;10.356;2023-06-26T06:06:19;23.50;99.90
39983;DHT22;25670;44.782;10.356;2023-06-26T06:08:46;23.60;99.90
39983;DHT22;25670;44.782;10.356;2023-06-26T06:13:38;23.60;99.90
39983;DHT22;25670;44.782;10.356;2023-06-26T06:16:04;23.80;99.90
39983;DHT22;25670;44.782;10.356;2023-06-26T06:18:31;23.80;99.90
39983;DHT22;25670;44.782;10.356;2023-06-26T06:20:57;23.90;99.90
39983;DHT22;25670;44.782;10.356;2023-06-26T06:23:23;24.00;99.90
39983;DHT22;25670;44.782;10.356;2023-06-26T06:25:49;24.40;99.90
39983;DHT22;25670;44.782;10.356;2023-06-26T06:28:15;24.00;99.90
39983;DHT22;25670;44.782;10.356;2023-06-26T06:30:42;24.20;99.90
39983;DHT22;25670;44.782;10.356;2023-06-26T06:33:09;24.80;99.90
39983;DHT22;25670;44.782;10.356;2023-06-26T06:35:35;24.30;99.90
39983;DHT22;25670;44.782;10.356;2023-06-26T06:38:01;24.30;99.90
39983;DHT22;25670;44.782;10.356;2023-06-26T06:40:30;24.60;99.90
39983;DHT22;25670;44.782;10.356;2023-06-26T06:42:56;24.50;99.90
39983;DHT22;25670;44.782;10.356;2023-06-26T06:45:23;24.50;99.90
39983;DHT22;25670;44.782;10.356;2023-06-26T06:47:49;24.60;99.90
39983;DHT22;25670;44.782;10.356;2023-06-26T06:50:15;24.70;99.90
39983;DHT22;25670;44.782;10.356;2023-06-26T06:52:43;24.80;99.90
39983;DHT22;25670;44.782;10.356;2023-06-26T06:55:09;24.90;99.90
39983;DHT22;25670;44.782;10.356;2023-06-26T06:57:36;24.90;99.90
39983;DHT22;25670;44.782;10.356;2023-06-26T07:02:31;25.00;99.90
39983;DHT22;25670;44.782;10.356;2023-06-26T07:04:57;25.10;99.90
39983;DHT22;25670;44.782;10.356;2023-06-26T07:07:23;25.40;99.90
39983;DHT22;25670;44.782;10.356;2023-06-26T07:09:54;25.10;99.90
39983;DHT22;25670;44.782;10.356;2023-06-26T07:12:20;25.30;99.90
39983;DHT22;25670;44.782;10.356;2023-06-26T07:14:46;25.40;99.90
39983;DHT22;25670;44.782;10.356;2023-06-26T07:17:12;25.40;99.90
39983;DHT22;25670;44.782;10.356;2023-06-26T07:19:39;25.50;99.90
39983;DHT22;25670;44.782;10.356;2023-06-26T07:22:05;25.60;99.90
39983;DHT22;25670;44.782;10.356;2023-06-26T07:24:32;25.70;99.90
39983;DHT22;25670;44.782;10.356;2023-06-26T07:26:59;25.80;99.90
39983;DHT22;25670;44.782;10.356;2023-06-26T07:29:26;25.90;99.90
39983;DHT22;25670;44.782;10.356;2023-06-26T07:31:52;25.90;99.90
39983;DHT22;25670;44.782;10.356;2023-06-26T07:34:19;26.00;99.90
39983;DHT22;25670;44.782;10.356;2023-06-26T07:36:45;26.70;99.90
39983;DHT22;25670;44.782;10.356;2023-06-26T07:39:11;26.10;99.90
39983;DHT22;25670;44.782;10.356;2023-06-26T07:41:38;26.20;99.90
39983;DHT22;25670;44.782;10.356;2023-06-26T07:44:04;26.80;99.90
39983;DHT22;25670;44.782;10.356;2023-06-26T07:46:30;26.80;99.90
39983;DHT22;25670;44.782;10.356;2023-06-26T07:48:56;27.80;99.90
39983;DHT22;25670;44.782;10.356;2023-06-26T07:51:22;26.40;99.90
39983;DHT22;25670;44.782;10.356;2023-06-26T07:53:50;26.40;99.90
39983;DHT22;25670;44.782;10.356;2023-06-26T07:56:16;26.60;99.90
39983;DHT22;25670;44.782;10.356;2023-06-26T07:58:42;26.60;99.90
39983;DHT22;25670;44.782;10.356;2023-06-26T08:01:08;26.70;99.90
39983;DHT22;25670;44.782;10.356;2023-06-26T08:03:34;26.80;99.90
39983;DHT22;25670;44.782;10.356;2023-06-26T08:06:00;27.00;99.90
39983;DHT22;25670;44.782;10.356;2023-06-26T08:08:27;27.10;99.90
39983;DHT22;25670;44.782;10.356;2023-06-26T08:10:53;27.20;99.90
39983;DHT22;25670;44.782;10.356;2023-06-26T08:13:19;27.20;99.90
39983;DHT22;25670;44.782;10.356;2023-06-26T08:15:45;27.30;99.90
39983;DHT22;25670;44.782;10.356;2023-06-26T08:18:12;27.70;99.90
39983;DHT22;25670;44.782;10.356;2023-06-26T08:20:38;27.40;99.90
39983;DHT22;25670;44.782;10.356;2023-06-26T08:23:04;27.40;99.90
39983;DHT22;25670;44.782;10.356;2023-06-26T08:25:31;27.60;99.90
39983;DHT22;25670;44.782;10.356;2023-06-26T08:27:57;27.70;99.90
39983;DHT22;25670;44.782;10.356;2023-06-26T08:30:23;27.70;99.90
39983;DHT22;25670;44.782;10.356;2023-06-26T08:32:56;27.90;99.90
39983;DHT22;25670;44.782;10.356;2023-06-26T08:35:22;28.40;99.90
39983;DHT22;25670;44.782;10.356;2023-06-26T08:37:49;28.10;99.90
39983;DHT22;25670;44.782;10.356;2023-06-26T08:40:18;28.20;99.90
39983;DHT22;25670;44.782;10.356;2023-06-26T08:42:47;28.30;99.90
39983;DHT22;25670;44.782;10.356;2023-06-26T08:45:14;28.20;99.90
39983;DHT22;25670;44.782;10.356;2023-06-26T08:47:41;28.30;99.90
39983;DHT22;25670;44.782;10.356;2023-06-26T08:50:10;28.30;99.90
39983;DHT22;25670;44.782;10.356;2023-06-26T08:52:54;28.30;99.90
39983;DHT22;25670;44.782;10.356;2023-06-26T08:55:26;28.40;99.90
39983;DHT22;25670;44.782;10.356;2023-06-26T08:57:54;28.50;99.90
39983;DHT22;25670;44.782;10.356;2023-06-26T09:00:20;28.60;99.90
39983;DHT22;25670;44.782;10.356;2023-06-26T09:02:46;28.60;99.90
39983;DHT22;25670;44.782;10.356;2023-06-26T09:05:13;28.80;99.90
39983;DHT22;25670;44.782;10.356;2023-06-26T09:07:39;28.90;99.90
39983;DHT22;25670;44.782;10.356;2023-06-26T09:10:06;29.00;99.90
39983;DHT22;25670;44.782;10.356;2023-06-26T09:12:32;29.20;99.90
39983;DHT22;25670;44.782;10.356;2023-06-26T09:14:59;29.20;99.90
39983;DHT22;25670;44.782;10.356;2023-06-26T09:17:30;29.30;99.90
39983;DHT22;25670;44.782;10.356;2023-06-26T09:19:57;29.40;99.90
39983;DHT22;25670;44.782;10.356;2023-06-26T09:22:24;29.30;99.90
39983;DHT22;25670;44.782;10.356;2023-06-26T09:24:51;29.30;99.90
39983;DHT22;25670;44.782;10.356;2023-06-26T09:27:18;29.50;99.90
39983;DHT22;25670;44.782;10.356;2023-06-26T09:29:47;29.50;99.90
39983;DHT22;25670;44.782;10.356;2023-06-26T09:32:14;29.70;99.90
39983;DHT22;25670;44.782;10.356;2023-06-26T09:34:42;29.70;99.90
39983;DHT22;25670;44.782;10.356;2023-06-26T09:37:10;29.70;99.90
39983;DHT22;25670;44.782;10.356;2023-06-26T09:39:37;29.80;99.60
39983;DHT22;25670;44.782;10.356;2023-06-26T09:42:04;29.90;98.30
39983;DHT22;25670;44.782;10.356;2023-06-26T09:44:31;30.10;98.60
39983;DHT22;25670;44.782;10.356;2023-06-26T09:46:57;30.20;99.40
39983;DHT22;25670;44.782;10.356;2023-06-26T09:49:24;30.30;99.00
39983;DHT22;25670;44.782;10.356;2023-06-26T09:51:53;30.40;99.40
39983;DHT22;25670;44.782;10.356;2023-06-26T09:54:21;30.40;98.70
39983;DHT22;25670;44.782;10.356;2023-06-26T09:56:47;30.30;98.50
39983;DHT22;25670;44.782;10.356;2023-06-26T09:59:15;30.30;98.90
39983;DHT22;25670;44.782;10.356;2023-06-26T10:01:43;30.40;98.80
39983;DHT22;25670;44.782;10.356;2023-06-26T10:04:10;30.40;99.10
39983;DHT22;25670;44.782;10.356;2023-06-26T10:06:41;30.60;99.30
39983;DHT22;25670;44.782;10.356;2023-06-26T10:09:08;30.60;98.70
39983;DHT22;25670;44.782;10.356;2023-06-26T10:11:41;30.70;99.00
39983;DHT22;25670;44.782;10.356;2023-06-26T10:14:11;30.80;98.40
39983;DHT22;25670;44.782;10.356;2023-06-26T10:16:39;30.80;97.50
39983;DHT22;25670;44.782;10.356;2023-06-26T10:19:08;30.80;97.60
39983;DHT22;25670;44.782;10.356;2023-06-26T10:21:37;30.80;97.50
39983;DHT22;25670;44.782;10.356;2023-06-26T10:24:06;30.90;97.80
39983;DHT22;25670;44.782;10.356;2023-06-26T10:26:36;31.00;97.20
39983;DHT22;25670;44.782;10.356;2023-06-26T10:29:05;31.10;96.90
39983;DHT22;25670;44.782;10.356;2023-06-26T10:31:32;31.00;96.40
39983;DHT22;25670;44.782;10.356;2023-06-26T10:34:00;31.10;96.80
39983;DHT22;25670;44.782;10.356;2023-06-26T10:36:31;31.20;96.80
39983;DHT22;25670;44.782;10.356;2023-06-26T10:39:03;31.20;96.00
39983;DHT22;25670;44.782;10.356;2023-06-26T10:41:37;31.70;96.10
39983;DHT22;25670;44.782;10.356;2023-06-26T10:44:13;31.70;94.60
39983;DHT22;25670;44.782;10.356;2023-06-26T10:46:52;31.50;94.30
39983;DHT22;25670;44.782;10.356;2023-06-26T10:49:27;31.60;94.20
39983;DHT22;25670;44.782;10.356;2023-06-26T10:51:53;31.80;93.60
39983;DHT22;25670;44.782;10.356;2023-06-26T10:54:22;31.80;93.90
39983;DHT22;25670;44.782;10.356;2023-06-26T10:56:49;31.90;94.10
39983;DHT22;25670;44.782;10.356;2023-06-26T10:59:20;32.00;93.80
39983;DHT22;25670;44.782;10.356;2023-06-26T11:04:45;31.60;93.00
39983;DHT22;25670;44.782;10.356;2023-06-26T11:07:15;29.70;92.20
39983;DHT22;25670;44.782;10.356;2023-06-26T11:09:57;31.60;93.00
39983;DHT22;25670;44.782;10.356;2023-06-26T11:12:41;31.80;93.00
39983;DHT22;25670;44.782;10.356;2023-06-26T11:15:09;32.00;93.00
39983;DHT22;25670;44.782;10.356;2023-06-26T11:17:36;32.10;92.60
39983;DHT22;25670;44.782;10.356;2023-06-26T11:20:05;32.20;93.10
39983;DHT22;25670;44.782;10.356;2023-06-26T11:22:38;32.30;92.50
39983;DHT22;25670;44.782;10.356;2023-06-26T11:25:05;32.50;92.70
39983;DHT22;25670;44.782;10.356;2023-06-26T11:29:58;33.00;91.80
39983;DHT22;25670;44.782;10.356;2023-06-26T11:32:26;33.30;92.20
39983;DHT22;25670;44.782;10.356;2023-06-26T11:34:54;33.40;91.50
39983;DHT22;25670;44.782;10.356;2023-06-26T11:37:21;33.50;91.00
39983;DHT22;25670;44.782;10.356;2023-06-26T11:39:47;33.20;90.30
39983;DHT22;25670;44.782;10.356;2023-06-26T11:42:13;33.10;90.40
39983;DHT22;25670;44.782;10.356;2023-06-26T11:44:41;33.20;90.50
39983;DHT22;25670;44.782;10.356;2023-06-26T11:47:19;33.50;90.80
39983;DHT22;25670;44.782;10.356;2023-06-26T11:49:47;33.60;90.70
39983;DHT22;25670;44.782;10.356;2023-06-26T11:52:14;34.00;90.30
39983;DHT22;25670;44.782;10.356;2023-06-26T11:54:42;34.20;90.00
39983;DHT22;25670;44.782;10.356;2023-06-26T11:57:09;34.40;88.70
39983;DHT22;25670;44.782;10.356;2023-06-26T11:59:40;34.50;86.20
39983;DHT22;25670;44.782;10.356;2023-06-26T12:02:11;34.50;85.00
39983;DHT22;25670;44.782;10.356;2023-06-26T12:04:41;34.30;85.00
39983;DHT22;25670;44.782;10.356;2023-06-26T12:07:08;34.40;85.40
39983;DHT22;25670;44.782;10.356;2023-06-26T12:09:44;34.30;84.70
39983;DHT22;25670;44.782;10.356;2023-06-26T12:12:15;34.20;85.60
39983;DHT22;25670;44.782;10.356;2023-06-26T12:14:42;34.20;83.60
39983;DHT22;25670;44.782;10.356;2023-06-26T12:17:12;34.30;82.50
39983;DHT22;25670;44.782;10.356;2023-06-26T12:19:42;34.50;82.90
39983;DHT22;25670;44.782;10.356;2023-06-26T12:22:09;34.30;81.60
39983;DHT22;25670;44.782;10.356;2023-06-26T12:24:37;34.20;82.60
39983;DHT22;25670;44.782;10.356;2023-06-26T12:27:08;34.20;81.10
39983;DHT22;25670;44.782;10.356;2023-06-26T12:32:02;34.50;79.20
39983;DHT22;25670;44.782;10.356;2023-06-26T12:34:33;34.60;80.40
39983;DHT22;25670;44.782;10.356;2023-06-26T12:37:10;34.60;79.70
39983;DHT22;25670;44.782;10.356;2023-06-26T12:42:26;34.80;79.40
39983;DHT22;25670;44.782;10.356;2023-06-26T12:44:54;34.70;79.00
39983;DHT22;25670;44.782;10.356;2023-06-26T12:47:27;34.70;79.20
39983;DHT22;25670;44.782;10.356;2023-06-26T12:49:54;34.80;77.10
39983;DHT22;25670;44.782;10.356;2023-06-26T12:52:21;34.90;76.30
39983;DHT22;25670;44.782;10.356;2023-06-26T12:54:51;35.00;76.60
39983;DHT22;25670;44.782;10.356;2023-06-26T12:57:18;35.30;77.50
39983;DHT22;25670;44.782;10.356;2023-06-26T12:59:44;35.50;75.80
39983;DHT22;25670;44.782;10.356;2023-06-26T13:02:10;35.40;75.60
39983;DHT22;25670;44.782;10.356;2023-06-26T13:07:09;35.30;76.60
39983;DHT22;25670;44.782;10.356;2023-06-26T13:09:36;36.20;75.90
39983;DHT22;25670;44.782;10.356;2023-06-26T13:12:06;35.80;75.40
39983;DHT22;25670;44.782;10.356;2023-06-26T13:14:32;36.00;73.70
39983;DHT22;25670;44.782;10.356;2023-06-26T13:17:01;36.00;74.70
39983;DHT22;25670;44.782;10.356;2023-06-26T13:19:27;36.20;73.60
39983;DHT22;25670;44.782;10.356;2023-06-26T13:21:54;36.00;74.60
39983;DHT22;25670;44.782;10.356;2023-06-26T13:24:20;36.10;73.30
39983;DHT22;25670;44.782;10.356;2023-06-26T13:26:46;36.20;74.90
39983;DHT22;25670;44.782;10.356;2023-06-26T13:29:12;36.20;73.90
39983;DHT22;25670;44.782;10.356;2023-06-26T13:31:40;36.50;73.00
39983;DHT22;25670;44.782;10.356;2023-06-26T13:34:06;36.40;71.30
39983;DHT22;25670;44.782;10.356;2023-06-26T13:36:33;36.40;71.80
39983;DHT22;25670;44.782;10.356;2023-06-26T13:39:02;36.20;71.50
39983;DHT22;25670;44.782;10.356;2023-06-26T13:41:29;36.30;71.90
39983;DHT22;25670;44.782;10.356;2023-06-26T13:43:55;36.80;73.00
39983;DHT22;25670;44.782;10.356;2023-06-26T13:46:22;37.20;72.20
39983;DHT22;25670;44.782;10.356;2023-06-26T13:48:48;37.10;72.00
39983;DHT22;25670;44.782;10.356;2023-06-26T13:51:14;37.10;71.30
39983;DHT22;25670;44.782;10.356;2023-06-26T13:53:40;37.20;71.30
39983;DHT22;25670;44.782;10.356;2023-06-26T13:56:06;37.40;70.60
39983;DHT22;25670;44.782;10.356;2023-06-26T13:58:35;37.70;70.80
39983;DHT22;25670;44.782;10.356;2023-06-26T14:01:03;38.00;70.40
39983;DHT22;25670;44.782;10.356;2023-06-26T14:03:30;38.00;69.20
39983;DHT22;25670;44.782;10.356;2023-06-26T14:05:56;37.90;70.10
39983;DHT22;25670;44.782;10.356;2023-06-26T14:08:22;38.00;69.50
39983;DHT22;25670;44.782;10.356;2023-06-26T14:10:50;38.10;69.30
39983;DHT22;25670;44.782;10.356;2023-06-26T14:13:16;38.30;68.50
39983;DHT22;25670;44.782;10.356;2023-06-26T14:15:42;38.10;68.20
39983;DHT22;25670;44.782;10.356;2023-06-26T14:18:10;38.20;68.10
39983;DHT22;25670;44.782;10.356;2023-06-26T14:20:36;37.90;67.30
39983;DHT22;25670;44.782;10.356;2023-06-26T14:23:03;38.50;68.50
39983;DHT22;25670;44.782;10.356;2023-06-26T14:25:29;37.90;68.10
39983;DHT22;25670;44.782;10.356;2023-06-26T14:27:56;38.10;67.80
39983;DHT22;25670;44.782;10.356;2023-06-26T14:30:23;38.30;67.70
39983;DHT22;25670;44.782;10.356;2023-06-26T14:32:49;38.70;67.00
39983;DHT22;25670;44.782;10.356;2023-06-26T14:35:16;38.60;65.90
39983;DHT22;25670;44.782;10.356;2023-06-26T14:37:42;38.30;66.40
39983;DHT22;25670;44.782;10.356;2023-06-26T14:40:10;38.50;66.10
39983;DHT22;25670;44.782;10.356;2023-06-26T14:42:36;38.20;65.60
39983;DHT22;25670;44.782;10.356;2023-06-26T14:45:03;38.00;64.90
39983;DHT22;25670;44.782;10.356;2023-06-26T14:47:29;38.00;66.90
39983;DHT22;25670;44.782;10.356;2023-06-26T14:49:56;38.00;66.30
39983;DHT22;25670;44.782;10.356;2023-06-26T14:52:23;38.30;65.80
39983;DHT22;25670;44.782;10.356;2023-06-26T14:54:49;40.20;68.70
39983;DHT22;25670;44.782;10.356;2023-06-26T14:57:16;38.70;66.90
39983;DHT22;25670;44.782;10.356;2023-06-26T14:59:42;39.10;66.40
39983;DHT22;25670;44.782;10.356;2023-06-26T15:02:08;39.30;65.10
39983;DHT22;25670;44.782;10.356;2023-06-26T15:04:35;39.50;65.00
39983;DHT22;25670;44.782;10.356;2023-06-26T15:07:01;39.30;64.10
39983;DHT22;25670;44.782;10.356;2023-06-26T15:09:27;38.90;63.40
39983;DHT22;25670;44.782;10.356;2023-06-26T15:11:53;39.00;64.60
39983;DHT22;25670;44.782;10.356;2023-06-26T15:14:19;38.80;64.20
39983;DHT22;25670;44.782;10.356;2023-06-26T15:16:46;38.90;64.60
39983;DHT22;25670;44.782;10.356;2023-06-26T15:19:12;39.20;64.30
39983;DHT22;25670;44.782;10.356;2023-06-26T15:21:38;39.10;63.90
39983;DHT22;25670;44.782;10.356;2023-06-26T15:24:05;39.50;63.30
39983;DHT22;25670;44.782;10.356;2023-06-26T15:26:31;39.70;63.00
39983;DHT22;25670;44.782;10.356;2023-06-26T15:28:57;39.90;63.20
39983;DHT22;25670;44.782;10.356;2023-06-26T15:31:23;40.20;63.00
39983;DHT22;25670;44.782;10.356;2023-06-26T15:33:49;40.20;62.00
39983;DHT22;25670;44.782;10.356;2023-06-26T15:36:16;40.30;62.20
39983;DHT22;25670;44.782;10.356;2023-06-26T15:38:42;40.00;62.30
39983;DHT22;25670;44.782;10.356;2023-06-26T15:41:08;40.20;62.80
39983;DHT22;25670;44.782;10.356;2023-06-26T15:43:34;40.40;62.00
39983;DHT22;25670;44.782;10.356;2023-06-26T15:46:01;40.80;62.60
39983;DHT22;25670;44.782;10.356;2023-06-26T15:48:28;41.00;61.20
39983;DHT22;25670;44.782;10.356;2023-06-26T15:50:54;40.70;59.80
39983;DHT22;25670;44.782;10.356;2023-06-26T15:53:34;40.50;60.00
39983;DHT22;25670;44.782;10.356;2023-06-26T15:56:01;41.00;61.20
39983;DHT22;25670;44.782;10.356;2023-06-26T15:58:27;41.60;60.20
39983;DHT22;25670;44.782;10.356;2023-06-26T16:00:54;41.60;60.20
39983;DHT22;25670;44.782;10.356;2023-06-26T16:03:20;41.00;59.90
39983;DHT22;25670;44.782;10.356;2023-06-26T16:05:46;41.00;60.20
39983;DHT22;25670;44.782;10.356;2023-06-26T16:08:12;41.00;59.50
39983;DHT22;25670;44.782;10.356;2023-06-26T16:10:38;40.90;59.40
39983;DHT22;25670;44.782;10.356;2023-06-26T16:13:04;41.40;59.40
39983;DHT22;25670;44.782;10.356;2023-06-26T16:15:31;41.70;59.20
39983;DHT22;25670;44.782;10.356;2023-06-26T16:17:57;42.10;58.80
39983;DHT22;25670;44.782;10.356;2023-06-26T16:20:24;42.20;58.50
39983;DHT22;25670;44.782;10.356;2023-06-26T16:22:50;42.00;58.40
39983;DHT22;25670;44.782;10.356;2023-06-26T16:25:16;42.20;58.30
39983;DHT22;25670;44.782;10.356;2023-06-26T16:27:42;42.60;57.80
39983;DHT22;25670;44.782;10.356;2023-06-26T16:30:12;43.20;57.40
39983;DHT22;25670;44.782;10.356;2023-06-26T16:32:38;43.60;56.50
39983;DHT22;25670;44.782;10.356;2023-06-26T16:35:05;43.40;56.40
39983;DHT22;25670;44.782;10.356;2023-06-26T16:37:31;43.50;55.40
39983;DHT22;25670;44.782;10.356;2023-06-26T16:39:57;43.00;54.80
39983;DHT22;25670;44.782;10.356;2023-06-26T16:42:23;43.30;56.50
39983;DHT22;25670;44.782;10.356;2023-06-26T16:44:50;43.30;56.10
39983;DHT22;25670;44.782;10.356;2023-06-26T16:47:16;43.70;54.60
39983;DHT22;25670;44.782;10.356;2023-06-26T16:49:43;43.40;54.20
39983;DHT22;25670;44.782;10.356;2023-06-26T16:52:09;43.90;54.80
39983;DHT22;25670;44.782;10.356;2023-06-26T16:54:35;44.40;54.10
39983;DHT22;25670;44.782;10.356;2023-06-26T16:57:02;44.80;54.40
39983;DHT22;25670;44.782;10.356;2023-06-26T16:59:28;44.90;53.70
39983;DHT22;25670;44.782;10.356;2023-06-26T17:01:55;44.60;52.90
39983;DHT22;25670;44.782;10.356;2023-06-26T17:04:23;44.40;51.60
39983;DHT22;25670;44.782;10.356;2023-06-26T17:06:50;44.20;51.90
39983;DHT22;25670;44.782;10.356;2023-06-26T17:09:18;43.60;52.60
39983;DHT22;25670;44.782;10.356;2023-06-26T17:11:44;43.10;52.20
39983;DHT22;25670;44.782;10.356;2023-06-26T17:14:11;42.80;52.10
39983;DHT22;25670;44.782;10.356;2023-06-26T17:16:37;42.00;52.50